createdAt,value
2023-05-01T00:02:27.187Z,3.87
2023-05-01T00:04:55.152Z,3.60
2023-05-01T00:07:23.239Z,3.50
2023-05-01T00:09:52.155Z,3.43
2023-05-01T00:12:20.052Z,3.97
2023-05-01T00:14:47.866Z,3.87
2023-05-01T00:17:15.697Z,3.50
2023-05-01T00:19:44.875Z,3.80
2023-05-01T00:22:13.927Z,3.63
2023-05-01T00:24:41.757Z,3.60
2023-05-01T00:27:09.593Z,3.70
2023-05-01T00:29:37.676Z,3.80
2023-05-01T00:32:06.072Z,3.53
2023-05-01T00:34:33.968Z,3.50
2023-05-01T00:37:03.640Z,4.00
2023-05-01T00:39:31.496Z,3.57
2023-05-01T00:41:59.337Z,3.77
2023-05-01T00:44:27.195Z,3.97
2023-05-01T00:46:56.597Z,3.57
2023-05-01T00:49:24.711Z,3.60
2023-05-01T00:51:54.303Z,3.90
2023-05-01T00:54:25.308Z,3.80
2023-05-01T00:56:53.713Z,3.93
2023-05-01T00:59:21.592Z,3.87
2023-05-01T01:01:49.447Z,4.27
2023-05-01T01:04:17.381Z,3.80
2023-05-01T01:06:53.177Z,3.73
2023-05-01T01:09:31.732Z,3.80
2023-05-01T01:12:05.076Z,4.00
2023-05-01T01:14:34.847Z,3.83
2023-05-01T01:17:06.279Z,3.67
2023-05-01T01:19:58.908Z,3.70
2023-05-01T01:22:28.612Z,3.60
2023-05-01T01:25:23.171Z,4.00
2023-05-01T01:28:12.328Z,3.53
2023-05-01T01:31:13.126Z,3.70
2023-05-01T01:34:11.355Z,3.20
2023-05-01T01:36:42.390Z,3.63
2023-05-01T01:39:20.873Z,3.87
2023-05-01T01:41:51.535Z,3.63
2023-05-01T01:44:25.412Z,3.60
2023-05-01T01:46:54.547Z,3.70
2023-05-01T01:49:26.635Z,3.70
2023-05-01T01:51:55.288Z,3.43
2023-05-01T01:54:26.273Z,3.70
2023-05-01T01:56:55.965Z,3.40
2023-05-01T01:59:25.498Z,3.13
2023-05-01T02:01:54.908Z,3.70
2023-05-01T02:04:24.551Z,3.77
2023-05-01T02:06:53.338Z,3.70
2023-05-01T02:09:22.755Z,3.50
2023-05-01T02:11:52.208Z,3.40
2023-05-01T02:14:20.189Z,3.53
2023-05-01T02:16:48.573Z,3.40
2023-05-01T02:19:17.117Z,3.40
2023-05-01T02:21:46.728Z,3.27
2023-05-01T02:24:14.678Z,3.20
2023-05-01T02:26:44.532Z,3.37
2023-05-01T02:29:12.421Z,3.37
2023-05-01T02:31:40.334Z,2.77
2023-05-01T02:34:08.571Z,2.80
2023-05-01T02:36:36.385Z,3.47
2023-05-01T02:39:06.574Z,3.17
2023-05-01T02:41:36.592Z,3.43
2023-05-01T02:44:06.043Z,3.20
2023-05-01T02:46:36.960Z,3.20
2023-05-01T02:49:05.386Z,3.30
2023-05-01T02:51:33.579Z,3.37
2023-05-01T02:54:01.472Z,3.20
2023-05-01T02:56:31.024Z,3.60
2023-05-01T02:58:58.893Z,3.20
2023-05-01T03:01:27.964Z,3.23
2023-05-01T03:03:55.967Z,3.27
2023-05-01T03:06:23.900Z,3.13
2023-05-01T03:08:51.857Z,3.10
2023-05-01T03:11:19.995Z,3.13
2023-05-01T03:13:49.357Z,3.40
2023-05-01T03:16:17.283Z,3.60
2023-05-01T03:18:45.174Z,3.10
2023-05-01T03:21:13.600Z,3.57
2023-05-01T03:23:41.795Z,3.97
2023-05-01T03:26:09.875Z,3.40
2023-05-01T03:28:38.097Z,3.63
2023-05-01T03:31:07.460Z,3.47
2023-05-01T03:33:35.829Z,3.57
2023-05-01T03:36:04.269Z,3.70
2023-05-01T03:38:32.150Z,3.53
2023-05-01T03:41:00.574Z,3.90
2023-05-01T03:43:28.574Z,3.60
2023-05-01T03:45:57.417Z,3.60
2023-05-01T03:48:29.450Z,3.70
2023-05-01T03:50:58.364Z,3.43
2023-05-01T03:53:26.794Z,3.80
2023-05-01T03:55:54.613Z,3.87
2023-05-01T03:58:23.161Z,3.90
2023-05-01T04:00:51.265Z,3.47
2023-05-01T04:03:19.188Z,3.60
2023-05-01T04:05:48.528Z,3.47
2023-05-01T04:08:16.389Z,3.73
2023-05-01T04:10:44.264Z,3.83
2023-05-01T04:13:12.987Z,4.40
2023-05-01T04:15:40.903Z,4.00
2023-05-01T04:18:08.826Z,3.43
2023-05-01T04:20:36.776Z,3.53
2023-05-01T04:23:06.006Z,3.47
2023-05-01T04:25:33.834Z,3.90
2023-05-01T04:28:01.666Z,3.40
2023-05-01T04:30:31.330Z,3.50
2023-05-01T04:32:59.495Z,3.53
2023-05-01T04:35:28.184Z,3.90
2023-05-01T04:37:56.029Z,3.50
2023-05-01T04:40:25.531Z,3.97
2023-05-01T04:42:53.386Z,3.50
2023-05-01T04:45:21.439Z,3.50
2023-05-01T04:47:49.368Z,3.73
2023-05-01T04:50:17.335Z,3.57
2023-05-01T04:52:45.215Z,3.37
2023-05-01T04:55:13.144Z,3.90
2023-05-01T04:57:42.445Z,3.33
2023-05-01T05:00:11.205Z,3.27
2023-05-01T05:02:39.210Z,3.10
2023-05-01T05:05:08.025Z,3.37
2023-05-01T05:07:35.948Z,3.70
2023-05-01T05:10:03.791Z,3.90
2023-05-01T05:12:31.592Z,3.63
2023-05-01T05:15:01.078Z,3.43
2023-05-01T05:17:29.022Z,3.57
2023-05-01T05:19:57.083Z,3.43
2023-05-01T05:22:26.155Z,3.43
2023-05-01T05:24:55.866Z,3.40
2023-05-01T05:27:23.790Z,3.33
2023-05-01T05:29:52.025Z,3.07
2023-05-01T05:32:21.409Z,3.40
2023-05-01T05:34:49.588Z,3.43
2023-05-01T05:37:17.447Z,3.20
2023-05-01T05:39:45.398Z,3.50
2023-05-01T05:42:14.041Z,3.57
2023-05-01T05:44:41.997Z,3.77
2023-05-01T05:47:09.951Z,3.70
2023-05-01T05:49:39.149Z,3.20
2023-05-01T05:52:07.386Z,3.20
2023-05-01T05:54:35.830Z,2.97
2023-05-01T05:57:03.846Z,3.00
2023-05-01T05:59:31.903Z,3.00
2023-05-01T06:01:59.793Z,3.20
2023-05-01T06:04:27.757Z,3.43
2023-05-01T06:06:57.689Z,3.30
2023-05-01T06:09:26.394Z,3.13
2023-05-01T06:11:54.279Z,3.10
2023-05-01T06:14:22.066Z,3.13
2023-05-01T06:16:49.890Z,3.10
2023-05-01T06:19:17.786Z,3.10
2023-05-01T06:21:45.703Z,2.90
2023-05-01T06:24:15.960Z,3.10
2023-05-01T06:26:43.804Z,2.70
2023-05-01T06:29:11.632Z,3.03
2023-05-01T06:31:39.874Z,2.83
2023-05-01T06:34:07.713Z,3.40
2023-05-01T06:36:35.796Z,3.33
2023-05-01T06:39:03.881Z,3.10
2023-05-01T06:41:33.470Z,3.00
2023-05-01T06:44:01.334Z,2.80
2023-05-01T06:46:29.328Z,2.90
2023-05-01T06:48:57.226Z,2.53
2023-05-01T06:51:25.102Z,2.77
2023-05-01T06:53:54.993Z,2.63
2023-05-01T06:56:22.835Z,2.40
2023-05-01T06:58:52.103Z,2.60
2023-05-01T07:01:20.033Z,2.57
2023-05-01T07:03:48.258Z,2.50
2023-05-01T07:06:16.227Z,2.40
2023-05-01T07:08:44.170Z,2.67
2023-05-01T07:11:12.390Z,2.70
2023-05-01T07:13:40.213Z,2.30
2023-05-01T07:16:09.819Z,2.40
2023-05-01T07:18:37.932Z,2.37
2023-05-01T07:21:06.549Z,2.17
2023-05-01T07:23:35.953Z,2.30
2023-05-01T07:26:04.130Z,2.23
2023-05-01T07:28:32.066Z,2.33
2023-05-01T07:31:01.584Z,2.40
2023-05-01T07:33:31.117Z,2.30
2023-05-01T07:35:59.101Z,2.17
2023-05-01T07:38:27.356Z,2.37
2023-05-01T07:40:56.104Z,2.30
2023-05-01T07:43:24.086Z,2.27
2023-05-01T07:46:00.306Z,2.37
2023-05-01T07:48:30.055Z,2.40
2023-05-01T07:50:58.070Z,2.60
2023-05-01T07:53:25.897Z,2.30
2023-05-01T07:55:53.839Z,2.80
2023-05-01T07:58:21.827Z,2.70
2023-05-01T08:00:49.670Z,2.63
2023-05-01T08:03:17.710Z,2.20
2023-05-01T08:05:47.004Z,2.30
2023-05-01T08:08:20.589Z,2.37
2023-05-01T08:10:48.858Z,1.83
2023-05-01T08:13:16.764Z,2.20
2023-05-01T08:15:44.733Z,1.93
2023-05-01T08:18:12.625Z,2.27
2023-05-01T08:20:40.509Z,1.87
2023-05-01T08:23:09.757Z,2.03
2023-05-01T08:25:37.592Z,2.13
2023-05-01T08:28:06.338Z,1.90
2023-05-01T08:30:34.247Z,1.87
2023-05-01T08:33:02.225Z,2.00
2023-05-01T08:35:30.237Z,1.80
2023-05-01T08:37:58.406Z,1.70
2023-05-01T08:40:27.733Z,2.10
2023-05-01T08:42:56.135Z,1.97
2023-05-01T08:45:25.313Z,2.37
2023-05-01T08:47:55.130Z,1.90
2023-05-01T08:50:23.915Z,1.90
2023-05-01T08:52:52.775Z,1.87
2023-05-01T08:55:21.009Z,1.67
2023-05-01T08:57:50.891Z,1.60
2023-05-01T09:00:20.552Z,1.90
2023-05-01T09:02:50.119Z,1.90
2023-05-01T09:05:19.161Z,2.03
2023-05-01T09:07:47.859Z,2.10
2023-05-01T09:10:18.362Z,1.70
2023-05-01T09:12:51.844Z,1.50
2023-05-01T09:15:21.740Z,1.73
2023-05-01T09:17:49.690Z,1.90
2023-05-01T09:20:18.913Z,2.00
2023-05-01T09:22:46.829Z,1.57
2023-05-01T09:25:14.765Z,1.60
2023-05-01T09:27:43.125Z,1.70
2023-05-01T09:30:12.146Z,1.67
2023-05-01T09:32:42.686Z,1.77
2023-05-01T09:35:12.490Z,1.73
2023-05-01T09:37:40.873Z,1.70
2023-05-01T09:40:10.223Z,1.77
2023-05-01T09:42:39.567Z,1.67
2023-05-01T09:45:15.731Z,1.70
2023-05-01T09:47:45.980Z,1.80
2023-05-01T09:50:15.062Z,1.67
2023-05-01T09:52:52.497Z,1.60
2023-05-01T09:55:20.989Z,1.77
2023-05-01T09:57:49.324Z,2.10
2023-05-01T10:00:20.597Z,1.70
2023-05-01T10:02:51.254Z,2.00
2023-05-01T10:05:19.886Z,1.90
2023-05-01T10:07:58.547Z,1.80
2023-05-01T10:10:26.988Z,1.70
2023-05-01T10:12:55.586Z,1.80
2023-05-01T10:15:26.940Z,1.97
2023-05-01T10:17:56.959Z,1.57
2023-05-01T10:20:24.867Z,1.80
2023-05-01T10:22:52.961Z,1.87
2023-05-01T10:25:24.571Z,1.80
2023-05-01T10:27:53.053Z,2.00
2023-05-01T10:30:21.185Z,1.80
2023-05-01T10:32:49.474Z,2.00
2023-05-01T10:35:22.846Z,1.93
2023-05-01T10:37:57.593Z,1.87
2023-05-01T10:40:48.321Z,1.80
2023-05-01T10:43:25.708Z,1.70
2023-05-01T10:45:54.274Z,2.00
2023-05-01T10:48:56.076Z,1.60
2023-05-01T10:51:27.875Z,1.80
2023-05-01T10:54:24.802Z,1.80
2023-05-01T10:56:52.757Z,1.60
2023-05-01T10:59:21.938Z,1.53
2023-05-01T11:01:51.923Z,2.00
2023-05-01T11:04:56.384Z,1.60
2023-05-01T11:07:27.144Z,1.67
2023-05-01T11:09:57.688Z,1.50
2023-05-01T11:12:52.235Z,1.60
2023-05-01T11:15:32.417Z,1.70
2023-05-01T11:18:01.022Z,1.73
2023-05-01T11:20:49.560Z,1.63
2023-05-01T11:23:23.558Z,1.73
2023-05-01T11:25:53.364Z,1.70
2023-05-01T11:28:24.602Z,1.73
2023-05-01T11:30:55.139Z,1.50
2023-05-01T11:33:26.013Z,1.60
2023-05-01T11:36:01.570Z,1.60
2023-05-01T11:38:31.173Z,1.67
2023-05-01T11:41:01.296Z,1.40
2023-05-01T11:43:29.772Z,1.63
2023-05-01T11:46:02.679Z,1.70
2023-05-01T11:48:32.335Z,1.60
2023-05-01T11:51:00.220Z,1.60
2023-05-01T11:53:28.722Z,2.10
2023-05-01T11:55:59.748Z,1.67
2023-05-01T11:58:34.877Z,1.60
2023-05-01T12:01:03.675Z,1.60
2023-05-01T12:03:43.697Z,1.30
2023-05-01T12:06:13.270Z,1.63
2023-05-01T12:08:45.378Z,1.60
2023-05-01T12:11:15.053Z,1.50
2023-05-01T12:13:43.949Z,1.67
2023-05-01T12:16:12.140Z,1.90
2023-05-01T12:18:40.043Z,1.73
2023-05-01T12:21:16.706Z,1.60
2023-05-01T12:23:45.717Z,1.77
2023-05-01T12:26:23.711Z,1.40
2023-05-01T12:28:55.559Z,1.67
2023-05-01T12:31:23.612Z,1.63
2023-05-01T12:33:55.100Z,1.70
2023-05-01T12:36:25.650Z,1.70
2023-05-01T12:38:58.363Z,1.97
2023-05-01T12:41:38.276Z,1.60
2023-05-01T12:44:18.934Z,1.60
2023-05-01T12:46:47.721Z,1.60
2023-05-01T12:49:18.970Z,1.60
2023-05-01T12:51:50.389Z,1.80
2023-05-01T12:54:22.604Z,1.80
2023-05-01T12:56:53.216Z,1.70
2023-05-01T12:59:23.077Z,1.90
2023-05-01T13:01:59.070Z,1.70
2023-05-01T13:04:27.527Z,1.80
2023-05-01T13:06:56.950Z,1.90
2023-05-01T13:09:25.677Z,1.60
2023-05-01T13:12:05.117Z,1.60
2023-05-01T13:14:38.128Z,1.80
2023-05-01T13:17:09.287Z,1.87
2023-05-01T13:19:40.866Z,1.70
2023-05-01T13:22:08.794Z,1.60
2023-05-01T13:24:38.166Z,1.50
2023-05-01T13:27:07.821Z,1.60
2023-05-01T13:29:35.943Z,1.60
2023-05-01T13:32:06.125Z,1.60
2023-05-01T13:34:35.003Z,1.63
2023-05-01T13:37:03.447Z,1.40
2023-05-01T13:39:31.329Z,1.60
2023-05-01T13:41:59.218Z,1.40
2023-05-01T13:44:29.299Z,1.47
2023-05-01T13:46:57.416Z,1.40
2023-05-01T13:49:25.775Z,1.60
2023-05-01T13:51:55.487Z,1.30
2023-05-01T13:54:23.574Z,1.50
2023-05-01T13:56:53.180Z,1.50
2023-05-01T13:59:21.084Z,1.50
2023-05-01T14:01:50.518Z,1.50
2023-05-01T14:04:21.318Z,1.33
2023-05-01T14:06:49.984Z,1.40
2023-05-01T14:09:18.720Z,1.50
2023-05-01T14:11:48.008Z,1.50
2023-05-01T14:14:17.227Z,1.60
2023-05-01T14:16:48.450Z,1.53
2023-05-01T14:19:18.905Z,1.60
2023-05-01T14:21:47.744Z,1.60
2023-05-01T14:24:19.080Z,1.67
2023-05-01T14:26:48.755Z,1.50
2023-05-01T14:29:24.118Z,1.60
2023-05-01T14:31:52.725Z,1.70
2023-05-01T14:34:23.627Z,1.70
2023-05-01T14:36:51.710Z,1.50
2023-05-01T14:39:20.167Z,1.80
2023-05-01T14:41:49.021Z,1.80
2023-05-01T14:44:17.594Z,1.73
2023-05-01T14:46:49.658Z,1.83
2023-05-01T14:49:20.018Z,1.70
2023-05-01T14:51:49.876Z,2.03
2023-05-01T14:54:18.884Z,2.03
2023-05-01T14:56:47.654Z,2.20
2023-05-01T14:59:15.755Z,2.10
2023-05-01T15:01:44.105Z,2.07
2023-05-01T15:04:12.760Z,2.13
2023-05-01T15:06:40.747Z,2.13
2023-05-01T15:09:10.028Z,2.50
2023-05-01T15:11:37.797Z,2.10
2023-05-01T15:14:06.003Z,2.23
2023-05-01T15:16:33.916Z,1.90
2023-05-01T15:19:01.839Z,2.17
2023-05-01T15:21:29.689Z,2.10
2023-05-01T15:23:57.528Z,2.00
2023-05-01T15:26:26.739Z,2.00
2023-05-01T15:28:54.876Z,1.93
2023-05-01T15:31:22.897Z,2.07
2023-05-01T15:33:50.848Z,2.20
2023-05-01T15:36:19.220Z,1.90
2023-05-01T15:38:47.770Z,1.90
2023-05-01T15:41:18.386Z,2.40
2023-05-01T15:43:48.396Z,2.13
2023-05-01T15:46:16.488Z,2.30
2023-05-01T15:48:44.313Z,2.17
2023-05-01T15:51:12.363Z,2.40
2023-05-01T15:53:40.515Z,2.63
2023-05-01T15:56:09.823Z,2.70
2023-05-01T15:58:37.648Z,3.00
2023-05-01T16:01:07.849Z,3.20
2023-05-01T16:03:36.172Z,3.30
2023-05-01T16:06:05.602Z,2.90
2023-05-01T16:08:33.810Z,2.80
2023-05-01T16:11:01.637Z,2.60
2023-05-01T16:13:29.512Z,2.70
2023-05-01T16:15:57.339Z,2.13
2023-05-01T16:18:26.523Z,2.70
2023-05-01T16:20:55.406Z,2.80
2023-05-01T16:23:23.285Z,2.77
2023-05-01T16:25:51.129Z,2.97
2023-05-01T16:28:19.168Z,2.87
2023-05-01T16:30:47.035Z,2.73
2023-05-01T16:33:19.519Z,2.60
2023-05-01T16:35:50.742Z,2.70
2023-05-01T16:38:19.333Z,2.60
2023-05-01T16:40:49.158Z,2.90
2023-05-01T16:43:17.077Z,2.70
2023-05-01T16:45:46.704Z,2.50
2023-05-01T16:48:17.308Z,2.47
2023-05-01T16:50:47.294Z,2.70
2023-05-01T16:53:17.646Z,2.50
2023-05-01T16:55:45.810Z,2.80
2023-05-01T16:58:13.982Z,3.00
2023-05-01T17:00:43.302Z,3.00
2023-05-01T17:03:11.238Z,3.17
2023-05-01T17:05:40.859Z,2.47
2023-05-01T17:08:11.417Z,2.70
2023-05-01T17:10:40.861Z,2.40
2023-05-01T17:13:08.731Z,2.70
2023-05-01T17:15:36.587Z,2.47
2023-05-01T17:18:05.895Z,2.70
2023-05-01T17:20:33.834Z,2.90
2023-05-01T17:23:01.667Z,3.30
2023-05-01T17:25:29.527Z,2.97
2023-05-01T17:27:59.068Z,3.43
2023-05-01T17:30:27.110Z,3.03
2023-05-01T17:32:55.258Z,3.20
2023-05-01T17:35:23.081Z,3.00
2023-05-01T17:37:51.233Z,3.10
2023-05-01T17:40:19.180Z,2.80
2023-05-01T17:42:47.063Z,3.07
2023-05-01T17:45:16.298Z,3.17
2023-05-01T17:47:45.143Z,3.10
2023-05-01T17:50:14.144Z,2.63
2023-05-01T17:52:42.098Z,2.73
2023-05-01T17:55:12.205Z,2.70
2023-05-01T17:57:40.443Z,2.67
2023-05-01T18:00:11.292Z,2.90
2023-05-01T18:02:44.562Z,3.00
2023-05-01T18:05:12.938Z,2.53
2023-05-01T18:07:40.993Z,2.70
2023-05-01T18:10:10.357Z,2.80
2023-05-01T18:12:38.436Z,2.80
2023-05-01T18:15:06.993Z,3.07
2023-05-01T18:17:35.049Z,2.80
2023-05-01T18:20:05.359Z,2.70
2023-05-01T18:22:33.171Z,2.60
2023-05-01T18:25:01.005Z,2.97
2023-05-01T18:27:30.051Z,2.67
2023-05-01T18:29:58.223Z,2.50
2023-05-01T18:32:39.252Z,2.43
2023-05-01T18:35:15.937Z,2.70
2023-05-01T18:37:46.586Z,2.53
2023-05-01T18:40:14.955Z,2.73
2023-05-01T18:42:42.901Z,2.77
2023-05-01T18:45:11.088Z,2.90
2023-05-01T18:47:39.015Z,2.73
2023-05-01T18:50:08.292Z,2.70
2023-05-01T18:52:38.085Z,2.70
2023-05-01T18:55:06.652Z,2.60
2023-05-01T18:57:35.076Z,2.80
2023-05-01T19:00:03.020Z,2.93
2023-05-01T19:02:30.973Z,2.70
2023-05-01T19:04:58.965Z,2.40
2023-05-01T19:07:26.996Z,2.83
2023-05-01T19:09:58.809Z,2.90
2023-05-01T19:12:27.063Z,2.90
2023-05-01T19:14:54.889Z,3.03
2023-05-01T19:17:22.769Z,2.90
2023-05-01T19:19:50.650Z,3.23
2023-05-01T19:22:19.664Z,3.07
2023-05-01T19:24:47.469Z,2.90
2023-05-01T19:27:18.122Z,2.90
2023-05-01T19:29:46.094Z,2.73
2023-05-01T19:32:14.383Z,2.60
2023-05-01T19:34:42.345Z,2.90
2023-05-01T19:37:10.642Z,2.67
2023-05-01T19:39:38.512Z,2.80
2023-05-01T19:42:06.406Z,3.23
2023-05-01T19:44:36.283Z,3.00
2023-05-01T20:25:25.261Z,4.10
2023-05-01T20:27:53.066Z,4.00
2023-05-01T20:30:20.980Z,4.53
2023-05-01T20:32:49.082Z,4.00
2023-05-01T20:39:37.484Z,3.57
2023-05-01T20:42:06.796Z,3.90
2023-05-01T20:44:34.774Z,3.97
2023-05-01T20:47:02.629Z,3.83
2023-05-01T20:49:33.430Z,3.83
2023-05-01T20:52:01.590Z,3.97
2023-05-01T20:54:32.354Z,4.13
2023-05-01T20:57:01.906Z,4.13
2023-05-01T20:59:31.135Z,4.17
2023-05-01T21:01:59.026Z,4.00
2023-05-01T21:04:26.938Z,3.90
2023-05-01T21:06:55.700Z,4.30
2023-05-01T21:09:23.656Z,3.73
2023-05-01T21:11:51.510Z,4.10
2023-05-01T21:14:19.500Z,4.10
2023-05-01T21:16:48.738Z,3.90
2023-05-01T21:19:16.709Z,4.30
2023-05-01T21:21:44.772Z,4.03
2023-05-01T21:24:16.154Z,4.17
2023-05-01T21:26:44.255Z,4.40
2023-05-01T21:29:12.497Z,3.90
2023-05-01T21:31:40.466Z,4.23
2023-05-01T21:34:10.183Z,4.30
2023-05-01T21:36:44.856Z,4.30
2023-05-01T21:39:13.138Z,4.27
2023-05-01T21:41:41.590Z,4.00
2023-05-01T21:44:10.927Z,4.70
2023-05-01T21:46:39.740Z,4.00
2023-05-01T21:49:09.048Z,4.50
2023-05-01T21:51:36.898Z,4.77
2023-05-01T21:54:05.814Z,4.10
2023-05-01T21:56:34.112Z,4.63
2023-05-01T21:59:03.028Z,4.47
2023-05-01T22:01:31.093Z,4.80
2023-05-01T22:03:59.386Z,4.97
2023-05-01T22:06:29.306Z,5.37
2023-05-01T22:08:57.156Z,5.30
2023-05-01T22:11:26.334Z,5.40
2023-05-01T22:13:54.250Z,5.57
2023-05-01T22:16:22.157Z,5.83
2023-05-01T22:18:50.575Z,5.33
2023-05-01T22:21:18.428Z,5.40
2023-05-01T22:23:47.652Z,5.50
2023-05-01T22:26:15.522Z,5.47
2023-05-01T22:28:43.504Z,5.07
2023-05-01T22:31:11.372Z,4.77
2023-05-01T22:33:39.298Z,4.80
2023-05-01T22:36:07.878Z,4.97
2023-05-01T22:38:36.021Z,5.00
2023-05-01T22:41:05.224Z,4.70
2023-05-01T22:43:33.025Z,4.97
2023-05-01T22:46:00.881Z,5.47
2023-05-01T22:48:28.772Z,5.20
2023-05-01T22:53:31.765Z,5.70
2023-05-01T22:55:59.666Z,5.10
2023-05-01T22:58:28.859Z,5.50
2023-05-01T23:00:56.714Z,5.70
2023-05-01T23:03:24.687Z,5.13
2023-05-01T23:05:52.579Z,5.40
2023-05-01T23:08:20.445Z,5.23
2023-05-01T23:10:48.249Z,4.77
2023-05-01T23:13:19.027Z,5.03
2023-05-01T23:15:49.998Z,4.90
2023-05-01T23:18:22.969Z,4.17
2023-05-01T23:20:51.209Z,4.00
2023-05-01T23:23:20.975Z,3.80
2023-05-01T23:25:50.660Z,3.73
2023-05-01T23:28:22.566Z,3.90
2023-05-01T23:30:55.788Z,3.80
2023-05-01T23:33:23.840Z,3.20
2023-05-01T23:35:51.675Z,3.00
2023-05-01T23:38:19.485Z,3.43
2023-05-01T23:40:47.280Z,3.40
2023-05-01T23:43:15.165Z,3.40
2023-05-01T23:45:43.047Z,3.30
2023-05-01T23:48:12.616Z,3.43
2023-05-01T23:50:40.675Z,3.10
2023-05-01T23:53:09.206Z,3.03
2023-05-01T23:55:38.286Z,3.10
2023-05-01T23:58:06.802Z,3.17
